createdAt,value
2018-07-14T00:03:28.751Z,101380.21
2018-07-14T00:08:24.014Z,101379.23
2018-07-14T00:13:18.564Z,101372.07
2018-07-14T00:18:13.122Z,101368.17
2018-07-14T00:23:08.276Z,101374.05
2018-07-14T00:28:02.480Z,101379.15
2018-07-14T00:32:56.823Z,101377.22
2018-07-14T00:37:51.538Z,101379.55
2018-07-14T00:42:46.467Z,101385.06
2018-07-14T00:47:41.114Z,101384.69
2018-07-14T00:52:36.203Z,101385.67
2018-07-14T00:57:30.902Z,101386.52
2018-07-14T01:02:25.622Z,101385.31
2018-07-14T01:07:19.956Z,101390.30
2018-07-14T01:12:14.313Z,101389.93
2018-07-14T01:17:08.941Z,101392.74
2018-07-14T01:22:03.466Z,101399.42
2018-07-14T01:26:58.036Z,101393.67
2018-07-14T01:31:52.577Z,101389.91
2018-07-14T01:36:47.556Z,101396.92
2018-07-14T01:41:42.465Z,101394.49
2018-07-14T01:46:37.390Z,101392.53
2018-07-14T01:51:31.869Z,101391.55
2018-07-14T01:56:26.492Z,101392.66
2018-07-14T02:01:21.327Z,101404.31
2018-07-14T02:06:15.912Z,101402.83
2018-07-14T02:11:10.559Z,101404.28
2018-07-14T02:16:05.996Z,101401.09
2018-07-14T02:21:00.471Z,101408.13
2018-07-14T02:25:55.100Z,101411.28
2018-07-14T02:30:49.601Z,101409.07
2018-07-14T02:35:44.190Z,101412.80
2018-07-14T02:40:38.664Z,101418.39
2018-07-14T02:45:33.109Z,101413.75
2018-07-14T02:50:27.634Z,101416.66
2018-07-14T02:55:23.269Z,101410.59
2018-07-14T03:00:18.506Z,101411.28
2018-07-14T03:05:13.257Z,101415.89
2018-07-14T03:10:07.912Z,101413.67
2018-07-14T03:15:02.449Z,101413.23
2018-07-14T03:19:57.193Z,101411.41
2018-07-14T03:24:51.658Z,101408.56
2018-07-14T03:29:46.196Z,101414.61
2018-07-14T03:34:40.989Z,101412.16
2018-07-14T03:39:35.575Z,101410.58
2018-07-14T03:44:30.198Z,101414.48
2018-07-14T03:49:24.804Z,101412.05
2018-07-14T03:54:19.384Z,101415.01
2018-07-14T03:59:14.064Z,101410.77
2018-07-14T04:04:08.628Z,101406.19
2018-07-14T04:09:02.941Z,101412.58
2018-07-14T04:13:57.174Z,101413.26
2018-07-14T04:18:51.721Z,101414.14
2018-07-14T04:23:46.268Z,101417.03
2018-07-14T04:28:40.810Z,101413.66
2018-07-14T04:33:35.460Z,101416.99
2018-07-14T04:38:29.805Z,101431.07
2018-07-14T04:43:24.413Z,101430.16
2018-07-14T04:48:19.084Z,101436.12
2018-07-14T04:53:13.611Z,101442.56
2018-07-14T04:58:08.297Z,101442.80
2018-07-14T05:03:02.662Z,101445.44
2018-07-14T05:07:57.224Z,101442.91
2018-07-14T05:12:51.772Z,101441.36
2018-07-14T05:17:46.329Z,101444.42
2018-07-14T05:22:40.558Z,101444.34
2018-07-14T05:27:35.203Z,101442.98
2018-07-14T05:32:29.775Z,101433.75
2018-07-14T05:37:24.495Z,101436.87
2018-07-14T05:42:18.964Z,101440.37
2018-07-14T05:47:13.470Z,101440.30
2018-07-14T05:52:08.562Z,101446.33
2018-07-14T05:57:04.156Z,101451.72
2018-07-14T06:01:59.173Z,101457.70
2018-07-14T06:06:54.280Z,101461.01
2018-07-14T06:11:48.880Z,101455.23
2018-07-14T06:16:44.000Z,101470.55
2018-07-14T06:21:40.030Z,101464.75
2018-07-14T06:26:34.546Z,101460.34
2018-07-14T06:31:31.438Z,101460.81
2018-07-14T06:36:26.611Z,101460.87
2018-07-14T06:41:24.040Z,101466.03
2018-07-14T06:46:19.404Z,101468.59
2018-07-14T06:51:14.769Z,101475.24
2018-07-14T06:56:09.711Z,101470.84
2018-07-14T07:01:05.053Z,101467.19
2018-07-14T07:06:00.671Z,101469.09
2018-07-14T07:10:57.777Z,101470.58
2018-07-14T07:15:53.008Z,101480.55
2018-07-14T07:20:48.465Z,101482.08
2018-07-14T07:25:43.414Z,101477.23
2018-07-14T07:30:39.095Z,101478.79
2018-07-14T07:35:34.849Z,101483.19
2018-07-14T07:40:30.071Z,101487.11
2018-07-14T07:45:26.129Z,101483.08
2018-07-14T07:50:20.920Z,101481.98
2018-07-14T07:55:16.458Z,101482.80
2018-07-14T08:00:11.617Z,101482.58
2018-07-14T08:05:06.867Z,101483.67
2018-07-14T08:10:02.449Z,101472.61
2018-07-14T08:14:58.097Z,101482.58
2018-07-14T08:19:54.277Z,101473.94
2018-07-14T08:24:49.808Z,101476.45
2018-07-14T08:29:44.611Z,101464.73
2018-07-14T08:34:40.103Z,101455.91
2018-07-14T08:39:34.799Z,101453.89
2018-07-14T08:44:30.049Z,101464.70
2018-07-14T08:49:25.663Z,101458.84
2018-07-14T08:54:21.285Z,101452.56
2018-07-14T08:59:16.602Z,101455.45
2018-07-14T09:04:11.724Z,101450.72
2018-07-14T09:09:08.722Z,101447.67
2018-07-14T09:14:03.500Z,101441.60
2018-07-14T09:18:58.556Z,101438.50
2018-07-14T09:23:53.992Z,101436.26
2018-07-14T09:28:49.296Z,101438.92
2018-07-14T09:33:45.437Z,101430.94
2018-07-14T09:38:42.974Z,101417.92
2018-07-14T09:43:38.509Z,101421.58
2018-07-14T09:48:33.931Z,101417.11
2018-07-14T09:53:29.663Z,101410.47
2018-07-14T09:58:24.985Z,101404.02
2018-07-14T10:03:21.451Z,101396.80
2018-07-14T10:08:17.092Z,101388.92
2018-07-14T10:13:12.107Z,101382.09
2018-07-14T10:18:08.015Z,101377.23
2018-07-14T10:23:04.484Z,101367.31
2018-07-14T10:27:59.525Z,101366.91
2018-07-14T10:32:55.092Z,101373.81
2018-07-14T10:37:50.290Z,101367.40
2018-07-14T10:42:45.160Z,101360.95
2018-07-14T10:47:40.161Z,101357.39
2018-07-14T10:52:35.492Z,101353.61
2018-07-14T10:57:30.618Z,101350.55
2018-07-14T11:02:30.081Z,101344.53
2018-07-14T11:07:28.184Z,101340.17
2018-07-14T11:12:23.068Z,101327.69
2018-07-14T11:17:17.970Z,101322.53
2018-07-14T11:22:12.824Z,101325.94
2018-07-14T11:27:07.649Z,101329.33
2018-07-14T11:32:02.738Z,101322.36
2018-07-14T11:36:57.898Z,101321.80
2018-07-14T11:41:52.876Z,101322.80
2018-07-14T11:46:47.660Z,101315.27
2018-07-14T11:51:42.741Z,101315.67
2018-07-14T11:56:37.476Z,101305.11
2018-07-14T12:01:32.281Z,101301.75
2018-07-14T12:06:28.122Z,101292.47
2018-07-14T12:11:23.156Z,101300.38
2018-07-14T12:16:17.900Z,101299.52
2018-07-14T12:21:12.693Z,101289.12
2018-07-14T12:26:07.202Z,101295.39
2018-07-14T12:31:01.926Z,101291.09
2018-07-14T12:35:56.843Z,101288.34
2018-07-14T12:40:51.883Z,101283.65
2018-07-14T12:45:47.473Z,101275.91
2018-07-14T12:50:43.236Z,101268.33
2018-07-14T12:55:38.274Z,101267.33
2018-07-14T13:00:34.025Z,101260.39
2018-07-14T13:05:30.726Z,101255.06
2018-07-14T13:10:26.402Z,101247.80
2018-07-14T13:15:21.856Z,101247.28
2018-07-14T13:20:17.141Z,101241.97
2018-07-14T13:25:12.189Z,101239.30
2018-07-14T13:30:07.213Z,101237.13
2018-07-14T13:35:02.726Z,101239.39
2018-07-14T13:39:57.912Z,101236.47
2018-07-14T13:44:55.052Z,101231.44
2018-07-14T13:49:50.281Z,101224.25
2018-07-14T13:54:45.229Z,101225.29
2018-07-14T13:59:40.142Z,101215.42
2018-07-14T14:04:36.250Z,101212.49
2018-07-14T14:09:31.651Z,101212.70
2018-07-14T14:14:27.362Z,101202.72
2018-07-14T14:19:22.438Z,101206.91
2018-07-14T14:24:17.881Z,101198.69
2018-07-14T14:29:12.792Z,101189.80
2018-07-14T14:34:07.780Z,101192.42
2018-07-14T14:39:02.629Z,101185.16
2018-07-14T14:43:57.346Z,101183.28
2018-07-14T14:48:52.164Z,101180.70
2018-07-14T14:53:46.952Z,101189.70
2018-07-14T14:58:41.719Z,101174.27
2018-07-14T15:03:36.655Z,101178.06
2018-07-14T15:08:32.036Z,101175.13
2018-07-14T15:13:26.829Z,101175.13
2018-07-14T15:18:21.472Z,101166.63
2018-07-14T15:23:16.396Z,101164.97
2018-07-14T15:28:11.168Z,101167.66
2018-07-14T15:33:06.735Z,101170.42
2018-07-14T15:38:02.023Z,101171.19
2018-07-14T15:42:58.731Z,101170.67
2018-07-14T15:47:54.730Z,101163.13
2018-07-14T15:52:50.149Z,101162.59
2018-07-14T15:57:44.666Z,101163.97
2018-07-14T16:02:40.189Z,101155.39
2018-07-14T16:07:37.982Z,101162.16
2018-07-14T16:12:33.683Z,101162.05
2018-07-14T16:17:28.650Z,101168.02
2018-07-14T16:22:23.723Z,101161.48
2018-07-14T16:27:19.246Z,101163.55
2018-07-14T16:32:15.225Z,101158.95
2018-07-14T16:37:10.081Z,101155.53
2018-07-14T16:42:04.845Z,101142.96
2018-07-14T16:46:59.951Z,101143.17
2018-07-14T16:51:57.848Z,101146.02
2018-07-14T16:56:52.793Z,101131.16
2018-07-14T17:01:47.601Z,101136.41
2018-07-14T17:06:42.400Z,101137.95
2018-07-14T17:11:37.425Z,101135.75
2018-07-14T17:16:32.380Z,101142.09
2018-07-14T17:21:27.064Z,101138.70
2018-07-14T17:26:22.167Z,101131.97
2018-07-14T17:31:17.443Z,101128.27
2018-07-14T17:36:12.089Z,101131.75
2018-07-14T17:41:07.715Z,101127.41
2018-07-14T17:46:02.542Z,101123.95
2018-07-14T17:50:57.034Z,101125.64
2018-07-14T17:55:51.638Z,101126.38
2018-07-14T18:00:46.146Z,101122.57
2018-07-14T18:05:40.702Z,101128.43
2018-07-14T18:10:35.006Z,101132.09
2018-07-14T18:15:29.248Z,101135.30
2018-07-14T18:20:23.771Z,101128.27
2018-07-14T18:25:18.432Z,101130.41
2018-07-14T18:30:13.463Z,101135.94
2018-07-14T18:35:07.936Z,101132.45
2018-07-14T18:40:12.148Z,101127.93
2018-07-14T18:45:06.909Z,101136.78
2018-07-14T18:50:11.136Z,101141.24
2018-07-14T18:55:20.670Z,101137.06
2018-07-14T19:00:14.898Z,101136.76
2018-07-14T19:05:09.410Z,101140.02
2018-07-14T19:10:03.913Z,101140.88
2018-07-14T19:14:58.764Z,101140.06
2018-07-14T19:19:53.416Z,101147.86
2018-07-14T19:24:47.703Z,101150.58
2018-07-14T19:29:42.170Z,101155.50
2018-07-14T19:34:36.667Z,101161.88
2018-07-14T19:39:31.243Z,101165.42
2018-07-14T19:44:25.790Z,101168.44
2018-07-14T19:49:20.331Z,101176.22
2018-07-14T19:54:15.123Z,101178.70
2018-07-14T19:59:09.606Z,101184.90
2018-07-14T20:04:04.078Z,101190.06
2018-07-14T20:08:58.579Z,101188.50
2018-07-14T20:13:53.238Z,101196.53
2018-07-14T20:18:47.898Z,101195.11
2018-07-14T20:23:53.735Z,101197.40
2018-07-14T20:28:58.361Z,101203.22
2018-07-14T20:33:54.259Z,101212.50
2018-07-14T20:38:49.408Z,101206.67
2018-07-14T20:43:44.901Z,101212.84
2018-07-14T20:48:39.605Z,101207.53
2018-07-14T20:53:34.653Z,101206.57
2018-07-14T20:58:31.164Z,101211.72
2018-07-14T21:03:27.991Z,101218.99
2018-07-14T21:08:23.575Z,101223.11
2018-07-14T21:13:18.197Z,101224.34
2018-07-14T21:18:12.938Z,101225.74
2018-07-14T21:23:08.363Z,101219.87
2018-07-14T21:28:02.818Z,101229.00
2018-07-14T21:32:57.824Z,101229.00
2018-07-14T21:37:53.403Z,101229.23
2018-07-14T21:42:48.768Z,101229.41
2018-07-14T21:47:44.067Z,101232.97
2018-07-14T21:52:39.301Z,101236.47
2018-07-14T21:57:35.039Z,101237.18
2018-07-14T22:02:29.635Z,101239.11
2018-07-14T22:07:24.632Z,101243.82
2018-07-14T22:12:19.658Z,101239.84
2018-07-14T22:17:15.002Z,101242.27
2018-07-14T22:22:10.317Z,101244.34
2018-07-14T22:27:05.643Z,101243.69
2018-07-14T22:32:00.249Z,101244.27
2018-07-14T22:36:55.387Z,101242.92
2018-07-14T22:41:50.050Z,101239.80
2018-07-14T22:46:45.565Z,101241.28
2018-07-14T22:51:41.408Z,101238.05
2018-07-14T22:56:36.707Z,101236.34
2018-07-14T23:01:32.199Z,101228.56
2018-07-14T23:06:26.773Z,101228.78
2018-07-14T23:11:21.792Z,101228.11
2018-07-14T23:16:16.893Z,101227.59
2018-07-14T23:21:11.449Z,101233.59
2018-07-14T23:26:06.140Z,101225.26
2018-07-14T23:31:01.297Z,101223.36
2018-07-14T23:35:58.090Z,101230.87
2018-07-14T23:40:52.960Z,101225.97
2018-07-14T23:45:48.432Z,101227.23
2018-07-14T23:50:43.170Z,101228.52
2018-07-14T23:55:40.177Z,101229.19
